Yazd, Iran
Current Conditions -  °F | °C
As of 1:00 PM on Friday 24 Oct 2014 (Local Time) from OIYY Reporting Station
Clear Clear  
Wind Chill: 82°   Ceiling: Unl
Heat Index: 82°   Visibility: 6mi
Dew Point: 12°   Wind: 7mph
Humidity: 7%   Direction: 130°SE
Pressure: 30.03"   Gusts: NA
Location:  31.92°N, 54.37°E
Report Text: OIYY 240900Z 13006KT CAVOK 28/M11 Q1017
Loading
Personal Weather Stations






























Interactive Weather Map
Tropical Storm Tracking
New forecast layout! Learn more

10-Day Weather Forecast

Advertisements
Track Severe Weather on mobile